Wetterdaten: Woche 18.05.09 - 24.05.09 (KW21)
Datum Zeit Temp. A. Feuchte A. Luftdruck Regen Wind Richtung Taupunkt Windchill Windben
18.05.2009 00:00 15,2 C 90 % 1014,4 hPa 0,0 l/m 0,0 km/h N 13,6 C 15,2 C 0,8 km/h
18.05.2009 01:00 15,3 C 90 % 1014,1 hPa 0,0 l/m 0,0 km/h N 13,6 C 15,3 C 1,6 km/h
18.05.2009 02:00 14,8 C 90 % 1013,7 hPa 0,0 l/m 0,0 km/h N 13,1 C 14,8 C 0,4 km/h
18.05.2009 03:00 14,8 C 91 % 1013,6 hPa 0,0 l/m 0,0 km/h N 13,3 C 14,8 C 0,4 km/h
18.05.2009 04:00 13,6 C 92 % 1013,5 hPa 0,0 l/m 0,0 km/h N 12,2 C 13,6 C 0,4 km/h
18.05.2009 05:00 13,4 C 93 % 1013,9 hPa 0,0 l/m 0,1 km/h N 12,2 C 13,4 C 1,6 km/h
18.05.2009 06:00 15,3 C 92 % 1015,2 hPa 0,0 l/m 0,6 km/h S-SO 14,0 C 15,3 C 4,4 km/h
18.05.2009 07:00 19,0 C 77 % 1015,3 hPa 0,0 l/m 5,5 km/h S-SW 14,7 C 18,8 C 23,3 km/h
18.05.2009 08:00 20,3 C 70 % 1016,3 hPa 0,0 l/m 4,8 km/h SO 14,7 C 20,3 C 22,5 km/h
18.05.2009 09:00 20,5 C 69 % 1017,1 hPa 0,0 l/m 3,5 km/h NW 14,6 C 20,5 C 15,3 km/h
18.05.2009 10:00 21,6 C 67 % 1017,5 hPa 0,0 l/m 4,6 km/h W-NW 15,1 C 21,6 C 15,3 km/h
18.05.2009 11:00 21,9 C 65 % 1017,8 hPa 0,0 l/m 5,4 km/h NW 15,1 C 21,9 C 15,7 km/h
18.05.2009 12:00 23,0 C 64 % 1017,5 hPa 0,0 l/m 5,7 km/h NW 15,8 C 23,0 C 15,7 km/h
18.05.2009 13:00 23,4 C 62 % 1017,6 hPa 0,0 l/m 4,3 km/h NW 15,6 C 23,4 C 14,1 km/h
18.05.2009 14:00 23,9 C 60 % 1017,6 hPa 0,0 l/m 3,8 km/h NW 15,6 C 23,9 C 10,5 km/h
18.05.2009 15:00 24,7 C 56 % 1017,0 hPa 0,0 l/m 4,2 km/h NW 15,3 C 24,7 C 12,5 km/h
18.05.2009 16:00 23,3 C 58 % 1016,8 hPa 0,0 l/m 2,8 km/h NW 14,6 C 23,3 C 8,4 km/h
18.05.2009 17:00 24,0 C 55 % 1016,6 hPa 0,0 l/m 0,9 km/h N-NO 14,2 C 24,0 C 6,0 km/h
18.05.2009 18:00 23,0 C 61 % 1016,6 hPa 0,0 l/m 0,1 km/h N 15,0 C 23,0 C 0,8 km/h
18.05.2009 19:00 22,8 C 64 % 1016,4 hPa 0,0 l/m 0,2 km/h N 15,5 C 22,8 C 2,4 km/h
18.05.2009 20:00 21,1 C 73 % 1016,3 hPa 0,0 l/m 0,0 km/h N 16,1 C 21,1 C 0,8 km/h
18.05.2009 21:00 20,0 C 77 % 1017,1 hPa 0,0 l/m 0,1 km/h N 15,8 C 20,0 C 1,2 km/h
18.05.2009 22:00 19,1 C 79 % 1017,5 hPa 0,0 l/m 0,1 km/h N 15,3 C 19,1 C 1,2 km/h
18.05.2009 23:00 18,9 C 79 % 1017,9 hPa 0,0 l/m 0,8 km/h SW 15,1 C 18,9 C 6,8 km/h
19.05.2009 00:00 18,6 C 79 % 1019,1 hPa 0,6 l/m 3,2 km/h O-NO 14,8 C 18,6 C 20,1 km/h
19.05.2009 01:00 16,5 C 87 % 1019,4 hPa 3,6 l/m 4,9 km/h NW 14,2 C 16,3 C 19,3 km/h
19.05.2009 02:00 15,9 C 91 % 1018,9 hPa 0,3 l/m 1,6 km/h N-NW 14,4 C 15,9 C 6,0 km/h
19.05.2009 03:00 15,7 C 91 % 1019,1 hPa 0,0 l/m 1,9 km/h NW 14,2 C 15,7 C 6,0 km/h
19.05.2009 04:00 15,6 C 89 % 1019,3 hPa 0,0 l/m 1,1 km/h S-SW 13,7 C 15,6 C 6,0 km/h
19.05.2009 05:00 15,3 C 86 % 1019,6 hPa 0,0 l/m 1,1 km/h SO 13,0 C 15,3 C 8,0 km/h
19.05.2009 06:00 15,5 C 86 % 1019,8 hPa 0,0 l/m 1,3 km/h W-SW 13,1 C 15,5 C 8,1 km/h
19.05.2009 07:00 16,7 C 81 % 1019,9 hPa 0,0 l/m 2,3 km/h NW 13,4 C 16,7 C 10,1 km/h
19.05.2009 08:00 17,8 C 78 % 1020,3 hPa 0,0 l/m 2,8 km/h NW 13,8 C 17,8 C 12,1 km/h
19.05.2009 09:00 18,3 C 76 % 1020,7 hPa 0,0 l/m 5,9 km/h NW 14,0 C 18,3 C 18,5 km/h
19.05.2009 10:00 19,0 C 73 % 1020,9 hPa 0,0 l/m 3,9 km/h NW 14,1 C 19,0 C 15,7 km/h
19.05.2009 11:00 20,4 C 69 % 1020,9 hPa 0,0 l/m 4,9 km/h N-NW 14,6 C 20,4 C 14,1 km/h
19.05.2009 12:00 20,8 C 68 % 1020,8 hPa 0,0 l/m 5,5 km/h NW 14,7 C 20,8 C 16,9 km/h
19.05.2009 13:00 21,4 C 68 % 1020,6 hPa 0,0 l/m 4,7 km/h W-SW 15,1 C 21,4 C 14,1 km/h
19.05.2009 14:00 22,0 C 64 % 1020,3 hPa 0,0 l/m 5,8 km/h NW 14,9 C 22,0 C 16,9 km/h
19.05.2009 15:00 22,4 C 61 % 1019,8 hPa 0,0 l/m 4,9 km/h N-NO 14,5 C 22,4 C 14,5 km/h
19.05.2009 16:00 22,4 C 61 % 1019,3 hPa 0,0 l/m 6,9 km/h NW 14,4 C 22,2 C 16,5 km/h
19.05.2009 17:00 21,8 C 64 % 1019,3 hPa 0,0 l/m 7,3 km/h N-NO 14,7 C 21,5 C 16,9 km/h
19.05.2009 18:00 20,5 C 69 % 1019,3 hPa 0,0 l/m 4,8 km/h N 14,6 C 20,5 C 13,7 km/h
19.05.2009 19:00 20,5 C 68 % 1019,7 hPa 0,0 l/m 4,1 km/h N-NW 14,3 C 20,5 C 11,3 km/h
19.05.2009 20:00 19,5 C 71 % 1020,3 hPa 0,0 l/m 1,8 km/h N 14,1 C 19,5 C 7,2 km/h
19.05.2009 21:00 18,5 C 74 % 1021,3 hPa 0,0 l/m 1,2 km/h N-NO 13,7 C 18,5 C 4,8 km/h
19.05.2009 22:00 17,3 C 80 % 1021,8 hPa 0,0 l/m 0,0 km/h N 13,7 C 17,3 C 0,8 km/h
19.05.2009 23:00 16,8 C 82 % 1021,8 hPa 0,0 l/m 0,0 km/h N 13,8 C 16,8 C 0,4 km/h
20.05.2009 00:00 16,4 C 83 % 1022,0 hPa 0,0 l/m 0,1 km/h N 13,4 C 16,4 C 1,2 km/h
20.05.2009 01:00 15,7 C 84 % 1021,7 hPa 0,0 l/m 0,2 km/h N 13,1 C 15,7 C 1,6 km/h
20.05.2009 02:00 14,5 C 86 % 1021,9 hPa 0,0 l/m 0,3 km/h N 12,2 C 14,5 C 1,6 km/h
20.05.2009 03:00 12,8 C 90 % 1022,2 hPa 0,0 l/m 0,0 km/h N 11,2 C 12,8 C 0,0 km/h
20.05.2009 04:00 12,2 C 91 % 1022,6 hPa 0,0 l/m 0,0 km/h N 10,8 C 12,2 C 0,4 km/h
20.05.2009 05:00 12,2 C 92 % 1022,6 hPa 0,0 l/m 0,0 km/h N 10,8 C 12,2 C 0,0 km/h
20.05.2009 06:00 13,0 C 91 % 1022,8 hPa 0,0 l/m 0,0 km/h N 11,6 C 13,0 C 0,0 km/h
20.05.2009 07:00 15,4 C 81 % 1022,9 hPa 0,0 l/m 0,2 km/h N 12,1 C 15,4 C 2,4 km/h
20.05.2009 08:00 16,7 C 74 % 1023,3 hPa 0,0 l/m 1,3 km/h N-NO 12,0 C 16,7 C 5,2 km/h
20.05.2009 09:00 18,4 C 71 % 1023,3 hPa 0,0 l/m 1,4 km/h N-NO 13,1 C 18,4 C 5,2 km/h
20.05.2009 10:00 20,2 C 67 % 1023,2 hPa 0,0 l/m 2,4 km/h N-NW 13,9 C 20,2 C 6,8 km/h
20.05.2009 11:00 21,8 C 61 % 1023,0 hPa 0,0 l/m 2,0 km/h N-NO 13,8 C 21,8 C 7,2 km/h
20.05.2009 12:00 23,1 C 53 % 1022,6 hPa 0,0 l/m 2,0 km/h N-NO 13,0 C 23,1 C 8,4 km/h
20.05.2009 13:00 23,5 C 48 % 1022,1 hPa 0,0 l/m 2,1 km/h N 11,6 C 23,5 C 6,8 km/h
20.05.2009 14:00 23,9 C 44 % 1021,6 hPa 0,0 l/m 3,1 km/h NO 10,8 C 23,9 C 8,9 km/h
20.05.2009 15:00 24,6 C 40 % 1021,0 hPa 0,0 l/m 2,6 km/h N-NO 10,0 C 24,6 C 8,9 km/h
20.05.2009 16:00 24,7 C 39 % 1020,7 hPa 0,0 l/m 2,2 km/h N-NO 9,7 C 24,7 C 6,4 km/h
20.05.2009 17:00 24,6 C 41 % 1020,1 hPa 0,0 l/m 1,8 km/h O 10,4 C 24,6 C 6,4 km/h
20.05.2009 18:00 23,8 C 42 % 1019,9 hPa 0,0 l/m 2,0 km/h O 10,2 C 23,8 C 5,6 km/h
20.05.2009 19:00 22,8 C 47 % 1019,7 hPa 0,0 l/m 0,5 km/h N 10,7 C 22,8 C 2,8 km/h
20.05.2009 20:00 19,8 C 64 % 1020,0 hPa 0,0 l/m 0,0 km/h N 12,7 C 19,8 C 0,4 km/h
20.05.2009 21:00 17,6 C 68 % 1020,4 hPa 0,0 l/m 0,0 km/h N 11,6 C 17,6 C 1,2 km/h
20.05.2009 22:00 16,3 C 72 % 1020,2 hPa 0,0 l/m 0,0 km/h N 11,1 C 16,3 C 0,8 km/h
20.05.2009 23:00 15,7 C 73 % 1020,1 hPa 0,0 l/m 0,0 km/h N 10,9 C 15,7 C 1,6 km/h
21.05.2009 00:00 14,4 C 78 % 1019,9 hPa 0,0 l/m 0,1 km/h N 10,6 C 14,4 C 1,2 km/h
21.05.2009 01:00 12,9 C 83 % 1019,6 hPa 0,0 l/m 0,0 km/h N 10,0 C 12,9 C 0,4 km/h
21.05.2009 02:00 11,6 C 88 % 1019,3 hPa 0,0 l/m 0,0 km/h N 9,7 C 11,6 C 0,0 km/h
21.05.2009 03:00 10,9 C 90 % 1018,8 hPa 0,0 l/m 0,0 km/h N 9,2 C 10,9 C 0,0 km/h
21.05.2009 04:00 10,6 C 91 % 1018,3 hPa 0,0 l/m 0,0 km/h N 9,1 C 10,6 C 0,0 km/h
21.05.2009 05:00 10,4 C 92 % 1018,3 hPa 0,0 l/m 0,0 km/h N 9,1 C 10,4 C 0,0 km/h
21.05.2009 06:00 12,3 C 90 % 1018,4 hPa 0,0 l/m 0,0 km/h N 10,6 C 12,3 C 0,0 km/h
21.05.2009 07:00 15,6 C 79 % 1018,4 hPa 0,0 l/m 0,1 km/h N 12,0 C 15,6 C 0,8 km/h
21.05.2009 08:00 17,7 C 69 % 1018,3 hPa 0,0 l/m 0,3 km/h N 11,9 C 17,7 C 3,2 km/h
21.05.2009 09:00 18,9 C 64 % 1017,8 hPa 0,0 l/m 0,9 km/h S-SW 11,9 C 18,9 C 6,8 km/h
21.05.2009 10:00 20,5 C 65 % 1017,6 hPa 0,0 l/m 0,5 km/h N 13,6 C 20,5 C 4,8 km/h
21.05.2009 11:00 23,1 C 60 % 1017,2 hPa 0,0 l/m 1,0 km/h N-NO 14,8 C 23,1 C 6,4 km/h
21.05.2009 12:00 24,5 C 58 % 1016,4 hPa 0,0 l/m 1,5 km/h O-SO 15,5 C 24,5 C 10,1 km/h
21.05.2009 13:00 25,4 C 57 % 1015,5 hPa 0,0 l/m 1,2 km/h O 16,1 C 25,4 C 6,4 km/h
21.05.2009 14:00 26,2 C 53 % 1014,7 hPa 0,0 l/m 3,2 km/h O 15,7 C 26,2 C 8,4 km/h
21.05.2009 15:00 26,8 C 51 % 1014,1 hPa 0,0 l/m 3,5 km/h O 15,7 C 26,8 C 8,9 km/h
21.05.2009 16:00 26,9 C 49 % 1013,6 hPa 0,0 l/m 3,5 km/h O 15,2 C 26,9 C 9,3 km/h
21.05.2009 17:00 26,3 C 49 % 1013,0 hPa 0,0 l/m 2,5 km/h O 14,7 C 26,3 C 8,0 km/h
21.05.2009 18:00 25,7 C 51 % 1012,4 hPa 0,0 l/m 1,1 km/h NO 14,8 C 25,7 C 6,4 km/h
21.05.2009 19:00 25,3 C 52 % 1012,2 hPa 0,0 l/m 0,8 km/h S-SO 14,5 C 25,3 C 8,0 km/h
21.05.2009 20:00 22,6 C 61 % 1012,3 hPa 0,0 l/m 0,1 km/h N 14,6 C 22,6 C 1,6 km/h
21.05.2009 21:00 21,4 C 65 % 1012,4 hPa 0,0 l/m 0,0 km/h N 14,5 C 21,4 C 2,4 km/h
21.05.2009 22:00 21,0 C 68 % 1012,9 hPa 0,0 l/m 0,0 km/h N 14,8 C 21,0 C 2,0 km/h
21.05.2009 23:00 19,8 C 77 % 1012,2 hPa 0,0 l/m 0,3 km/h N 15,6 C 19,8 C 2,4 km/h
22.05.2009 00:00 20,7 C 67 % 1012,1 hPa 0,0 l/m 1,1 km/h S-SW 14,2 C 20,7 C 6,8 km/h
22.05.2009 01:00 21,7 C 58 % 1010,8 hPa 0,0 l/m 5,4 km/h SO 13,0 C 21,4 C 18,1 km/h
22.05.2009 02:00 20,3 C 65 % 1010,3 hPa 0,0 l/m 0,8 km/h N-NO 13,4 C 20,3 C 4,8 km/h
22.05.2009 03:00 18,1 C 75 % 1011,3 hPa 0,0 l/m 0,1 km/h N-NW 13,5 C 18,1 C 1,6 km/h
22.05.2009 04:00 18,4 C 71 % 1012,2 hPa 0,0 l/m 1,9 km/h N-NW 13,0 C 18,4 C 6,4 km/h
22.05.2009 05:00 17,9 C 75 % 1013,1 hPa 0,0 l/m 0,1 km/h N 13,3 C 17,9 C 2,0 km/h
22.05.2009 06:00 19,4 C 67 % 1013,3 hPa 0,0 l/m 1,3 km/h SW 13,1 C 19,4 C 8,0 km/h
22.05.2009 07:00 19,4 C 66 % 1013,2 hPa 0,0 l/m 0,9 km/h N-NO 13,0 C 19,4 C 4,0 km/h
22.05.2009 08:00 18,7 C 75 % 1013,9 hPa 0,3 l/m 0,8 km/h N 14,1 C 18,7 C 4,4 km/h
22.05.2009 09:00 18,6 C 79 % 1014,2 hPa 0,0 l/m 0,3 km/h N 14,8 C 18,6 C 2,0 km/h
22.05.2009 10:00 21,3 C 68 % 1013,9 hPa 0,0 l/m 1,9 km/h O-NO 15,0 C 21,3 C 7,2 km/h
22.05.2009 11:00 22,3 C 60 % 1014,1 hPa 0,0 l/m 2,2 km/h N-NW 14,1 C 22,3 C 8,9 km/h
22.05.2009 12:00 22,9 C 59 % 1013,7 hPa 0,0 l/m 2,3 km/h NW 14,5 C 22,9 C 11,6 km/h
22.05.2009 13:00 24,6 C 50 % 1013,4 hPa 0,0 l/m 4,8 km/h N-NO 13,6 C 24,6 C 20,5 km/h
22.05.2009 14:00 25,4 C 47 % 1012,9 hPa 0,0 l/m 5,2 km/h SO 13,1 C 25,4 C 19,3 km/h
22.05.2009 15:00 26,5 C 44 % 1012,3 hPa 0,0 l/m 5,1 km/h S 13,2 C 26,4 C 20,5 km/h
22.05.2009 16:00 25,5 C 46 % 1011,5 hPa 0,0 l/m 4,2 km/h NW 12,9 C 25,5 C 13,3 km/h
22.05.2009 17:00 24,0 C 50 % 1012,1 hPa 0,0 l/m 3,6 km/h SW 12,8 C 24,0 C 13,3 km/h
22.05.2009 18:00 22,9 C 54 % 1012,4 hPa 0,0 l/m 2,0 km/h NW 13,0 C 22,9 C 10,9 km/h
22.05.2009 19:00 22,6 C 57 % 1012,8 hPa 0,0 l/m 2,4 km/h SW 13,5 C 22,6 C 10,9 km/h
22.05.2009 20:00 21,1 C 58 % 1014,0 hPa 0,0 l/m 4,4 km/h S-SW 12,6 C 21,0 C 16,9 km/h
22.05.2009 21:00 17,2 C 73 % 1015,7 hPa 0,6 l/m 0,7 km/h N 12,4 C 17,2 C 4,4 km/h
22.05.2009 22:00 16,7 C 74 % 1015,9 hPa 0,0 l/m 0,9 km/h SW 12,0 C 16,7 C 5,2 km/h
22.05.2009 23:00 15,0 C 85 % 1016,6 hPa 0,0 l/m 0,3 km/h N 12,4 C 15,0 C 2,0 km/h
23.05.2009 00:00 14,5 C 88 % 1016,9 hPa 0,0 l/m 0,1 km/h N 12,4 C 14,5 C 1,2 km/h
23.05.2009 01:00 14,8 C 86 % 1016,8 hPa 0,0 l/m 0,0 km/h N 12,5 C 14,8 C 1,6 km/h
23.05.2009 02:00 14,5 C 87 % 1016,7 hPa 0,0 l/m 0,0 km/h N 12,4 C 14,5 C 0,0 km/h
23.05.2009 03:00 13,8 C 88 % 1016,7 hPa 0,0 l/m 0,0 km/h N 11,9 C 13,8 C 0,0 km/h
23.05.2009 04:00 13,4 C 89 % 1017,0 hPa 0,0 l/m 0,1 km/h N 11,6 C 13,4 C 0,8 km/h
23.05.2009 05:00 13,6 C 87 % 1017,6 hPa 0,0 l/m 0,2 km/h N-NW 11,4 C 13,6 C 1,2 km/h
23.05.2009 06:00 14,6 C 83 % 1018,4 hPa 0,0 l/m 1,8 km/h N-NW 11,8 C 14,6 C 4,8 km/h
23.05.2009 07:00 15,9 C 75 % 1019,1 hPa 0,0 l/m 3,0 km/h W 11,4 C 15,9 C 9,3 km/h
23.05.2009 08:00 16,3 C 68 % 1019,9 hPa 0,0 l/m 3,0 km/h O-NO 10,3 C 16,3 C 8,4 km/h
23.05.2009 09:00 17,0 C 60 % 1020,3 hPa 0,0 l/m 3,3 km/h N-NO 9,1 C 17,0 C 8,4 km/h
23.05.2009 10:00 18,1 C 55 % 1020,2 hPa 0,0 l/m 3,8 km/h NW 9,0 C 18,1 C 9,7 km/h
23.05.2009 11:00 19,6 C 53 % 1020,1 hPa 0,0 l/m 5,4 km/h NO 9,8 C 19,6 C 15,7 km/h
23.05.2009 12:00 20,7 C 49 % 1019,6 hPa 0,0 l/m 6,1 km/h N-NO 9,7 C 20,7 C 17,3 km/h
23.05.2009 13:00 21,6 C 48 % 1019,1 hPa 0,0 l/m 5,8 km/h N-NW 10,1 C 21,5 C 17,7 km/h
23.05.2009 14:00 21,9 C 47 % 1018,9 hPa 0,0 l/m 6,2 km/h N 10,2 C 21,9 C 15,7 km/h
23.05.2009 15:00 22,9 C 47 % 1018,5 hPa 0,0 l/m 4,8 km/h N-NO 10,8 C 22,9 C 12,1 km/h
23.05.2009 16:00 22,7 C 46 % 1018,4 hPa 0,0 l/m 4,7 km/h N 10,3 C 22,7 C 13,3 km/h
23.05.2009 17:00 22,1 C 46 % 1018,3 hPa 0,0 l/m 4,1 km/h N-NO 10,0 C 22,1 C 9,3 km/h
23.05.2009 18:00 21,6 C 45 % 1018,5 hPa 0,0 l/m 2,7 km/h N-NO 9,2 C 21,6 C 7,2 km/h
23.05.2009 19:00 21,0 C 46 % 1018,8 hPa 0,0 l/m 1,0 km/h N-NW 9,0 C 21,0 C 4,0 km/h
23.05.2009 20:00 19,1 C 53 % 1019,2 hPa 0,0 l/m 0,2 km/h N 9,2 C 19,1 C 1,6 km/h
23.05.2009 21:00 16,6 C 65 % 1020,3 hPa 0,3 l/m 0,1 km/h N 9,8 C 16,6 C 2,0 km/h
23.05.2009 22:00 14,3 C 75 % 1020,8 hPa 0,0 l/m 0,1 km/h N 9,9 C 14,3 C 0,8 km/h
23.05.2009 23:00 13,0 C 77 % 1020,8 hPa 0,0 l/m 0,0 km/h N 9,0 C 13,0 C 0,4 km/h
24.05.2009 00:00 12,4 C 78 % 1020,6 hPa 0,0 l/m 0,0 km/h N 8,6 C 12,4 C 0,4 km/h
24.05.2009 01:00 11,5 C 80 % 1020,5 hPa 0,0 l/m 0,0 km/h N 8,1 C 11,5 C 0,4 km/h
24.05.2009 02:00 11,1 C 82 % 1020,0 hPa 0,0 l/m 0,0 km/h N 8,0 C 11,1 C 0,4 km/h
24.05.2009 03:00 12,0 C 80 % 1019,5 hPa 0,0 l/m 0,0 km/h N 8,6 C 12,0 C 0,4 km/h
24.05.2009 04:00 12,3 C 82 % 1018,9 hPa 0,0 l/m 0,0 km/h N 9,2 C 12,3 C 0,4 km/h
24.05.2009 05:00 12,4 C 83 % 1019,6 hPa 0,0 l/m 0,0 km/h N 9,6 C 12,4 C 0,0 km/h
24.05.2009 06:00 13,3 C 81 % 1019,6 hPa 0,0 l/m 0,0 km/h N 10,1 C 13,3 C 0,4 km/h
24.05.2009 07:00 13,7 C 76 % 1019,6 hPa 0,0 l/m 0,0 km/h N 9,5 C 13,7 C 0,0 km/h
24.05.2009 08:00 15,3 C 69 % 1019,6 hPa 0,0 l/m 0,3 km/h O-SO 9,7 C 15,3 C 2,4 km/h
24.05.2009 09:00 17,3 C 56 % 1019,4 hPa 0,0 l/m 0,8 km/h N 8,4 C 17,3 C 4,0 km/h
24.05.2009 10:00 18,0 C 57 % 1019,0 hPa 0,0 l/m 1,4 km/h NO 9,2 C 18,0 C 5,2 km/h
24.05.2009 11:00 19,1 C 57 % 1019,0 hPa 0,0 l/m 1,7 km/h O-NO 10,4 C 19,1 C 5,2 km/h
24.05.2009 12:00 20,3 C 56 % 1018,8 hPa 0,0 l/m 1,2 km/h O 11,2 C 20,3 C 5,2 km/h
24.05.2009 13:00 21,5 C 54 % 1018,5 hPa 0,0 l/m 1,6 km/h O-NO 11,8 C 21,5 C 5,2 km/h
24.05.2009 14:00 22,8 C 53 % 1018,1 hPa 0,0 l/m 1,2 km/h NO 12,7 C 22,8 C 4,4 km/h
24.05.2009 15:00 24,1 C 50 % 1017,6 hPa 0,0 l/m 0,9 km/h N-NO 12,9 C 24,1 C 4,0 km/h
24.05.2009 16:00 25,1 C 48 % 1016,9 hPa 0,0 l/m 0,8 km/h O-SO 13,1 C 25,1 C 4,4 km/h
24.05.2009 17:00 24,8 C 49 % 1016,4 hPa 0,0 l/m 0,8 km/h N 13,4 C 24,8 C 4,0 km/h
24.05.2009 18:00 24,2 C 52 % 1016,1 hPa 0,0 l/m 0,6 km/h N 13,8 C 24,2 C 2,8 km/h
24.05.2009 19:00 23,5 C 57 % 1016,1 hPa 0,0 l/m 0,5 km/h N 14,4 C 23,5 C 3,2 km/h
24.05.2009 20:00 22,3 C 64 % 1016,1 hPa 0,0 l/m 0,1 km/h N 15,0 C 22,3 C 1,6 km/h
24.05.2009 21:00 19,5 C 76 % 1016,7 hPa 0,0 l/m 0,0 km/h N 15,1 C 19,5 C 0,4 km/h
24.05.2009 22:00 19,3 C 75 % 1017,0 hPa 0,0 l/m 0,2 km/h N 14,7 C 19,3 C 3,2 km/h
24.05.2009 23:00 19,6 C 76 % 1016,9 hPa 0,0 l/m 0,1 km/h N 15,3 C 19,6 C 0,8 km/h
Min-Datum _ 21.05.09 20.05.09 22.05.09 - 18.05.09 - 24.05.09 21.05.09 18.05.09
_ Min-Zeit 05:15 16:30 02:15 - 00:00 - 02:15 05:15 00:00
Minimum _ 10,2 C 37 % 1010,0 hPa - 0,0 km/h - 7,8 C 10,2 C 0,0 km/h
Max-Datum _ 21.05.09 18.05.09 20.05.09 19.05.09 22.05.09 - 18.05.09 21.05.09 18.05.09
_ Max-Zeit 15:30 06:15 08:30 01:15 01:15 - 14:45 16:00 07:45
Maximum _ 27,6 C 94 % 1023,4 hPa 3,6 l/m 10,3 km/h
SO
- 17,0 C 27,4 C 29,0 km/h
W-SW
Durchschnitt _ 19,1 C 68 % 1017,7 hPa #5,7 l/m 1,8 km/h NW 12,7 C 19,1 C 6,5 km/h